Time;durP1;ratioP1;P1;durP2;ratioP2;P2;SDS_P1;SDS_P2;PMS_P1;PMS_P2;Temp;Humidity;BMP_temperature;BMP_pressure;BME280_temperature;BME280_humidity;BME280_pressure;Samples;Min_cycle;Max_cycle;Signal;HPM_P1;HPM_P2
2023/10/27 00:00:54;;;;;;;45.42;21.70;;;;;;;16.31;73.99;99156.72;4947868;28;99617;-80
2023/10/27 00:03:21;;;;;;;41.35;20.65;;;;;;;16.41;73.96;99162.09;4951867;28;98875;-80
2023/10/27 00:05:47;;;;;;;52.05;21.00;;;;;;;16.48;73.51;99154.41;4950418;28;96982;-78
2023/10/27 00:08:14;;;;;;;46.95;21.88;;;;;;;16.34;74.04;99151.09;4950971;28;97679;-79
2023/10/27 00:10:42;;;;;;;48.67;22.27;;;;;;;15.90;75.98;99148.63;4949487;28;99001;-78
2023/10/27 00:13:08;;;;;;;47.72;22.55;;;;;;;16.30;74.52;99155.00;4949287;28;99188;-78
2023/10/27 00:15:35;;;;;;;49.25;22.80;;;;;;;16.51;74.05;99154.19;4951067;28;96719;-78
2023/10/27 00:18:02;;;;;;;44.60;20.95;;;;;;;16.32;74.78;99150.41;4951133;28;99349;-78
2023/10/27 00:20:28;;;;;;;48.40;23.13;;;;;;;16.15;76.22;99150.97;4948540;28;100941;-78
2023/10/27 00:22:55;;;;;;;46.05;21.95;;;;;;;16.37;74.85;99143.81;4950629;28;98189;-79
2023/10/27 00:25:21;;;;;;;43.25;21.25;;;;;;;16.01;75.49;99145.97;4943223;28;97166;-79
2023/10/27 00:27:49;;;;;;;43.42;21.83;;;;;;;16.33;74.12;99146.78;4950412;28;97138;-78
2023/10/27 00:30:16;;;;;;;45.80;21.23;;;;;;;16.27;74.58;99152.63;4950012;28;99578;-78
2023/10/27 00:32:43;;;;;;;45.00;21.08;;;;;;;16.11;74.97;99146.88;4950562;28;99063;-78
2023/10/27 00:35:10;;;;;;;40.97;21.10;;;;;;;16.08;75.34;99146.28;4946383;28;96798;-78
2023/10/27 00:37:37;;;;;;;46.83;21.33;;;;;;;16.04;75.80;99137.69;4949291;28;99015;-77
2023/10/27 00:40:05;;;;;;;46.33;20.95;;;;;;;16.30;74.94;99132.84;4949709;28;98916;-78
2023/10/27 00:42:31;;;;;;;50.22;21.10;;;;;;;16.04;75.55;99132.38;4950070;28;97720;-78
2023/10/27 00:45:00;;;;;;;41.53;20.67;;;;;;;16.12;75.22;99132.56;4949375;28;97071;-81
2023/10/27 00:47:27;;;;;;;47.22;21.17;;;;;;;16.19;75.18;99120.44;4952106;28;96837;-80
2023/10/27 00:49:55;;;;;;;48.47;21.02;;;;;;;16.18;74.98;99121.41;4955946;28;99388;-80
2023/10/27 00:52:24;;;;;;;44.33;20.73;;;;;;;16.29;74.32;99115.16;4956462;28;98204;-80
2023/10/27 00:54:52;;;;;;;44.97;21.23;;;;;;;16.13;74.56;99115.63;4948288;28;96822;-80
2023/10/27 00:57:19;;;;;;;44.38;20.70;;;;;;;16.37;73.74;99110.03;4952214;28;97385;-77
2023/10/27 00:59:46;;;;;;;43.25;19.08;;;;;;;16.43;73.28;99116.66;4946917;28;98106;-77
2023/10/27 01:02:16;;;;;;;44.80;20.27;;;;;;;16.42;72.96;99117.63;4945670;28;101713;-77
2023/10/27 01:04:42;;;;;;;44.97;20.42;;;;;;;16.37;73.76;99109.19;4950326;28;96805;-77
2023/10/27 01:07:09;;;;;;;43.85;19.88;;;;;;;16.14;73.62;99109.31;4949096;28;96842;-77
2023/10/27 01:09:36;;;;;;;45.05;19.33;;;;;;;15.94;75.11;99104.81;4949295;28;100133;-78
2023/10/27 01:12:02;;;;;;;39.00;19.55;;;;;;;16.03;74.50;99113.84;4950399;28;97800;-79
2023/10/27 01:14:29;;;;;;;43.72;20.08;;;;;;;16.02;74.42;99112.97;4951643;28;97431;-79
2023/10/27 01:16:57;;;;;;;42.00;19.45;;;;;;;16.16;73.77;99106.50;4952562;28;96847;-79
2023/10/27 01:19:27;;;;;;;36.00;18.90;;;;;;;16.09;73.81;99106.16;4946827;28;101912;-79
2023/10/27 01:21:53;;;;;;;38.85;19.63;;;;;;;16.31;73.17;99100.72;4947836;28;99611;-79
2023/10/27 01:24:22;;;;;;;40.95;18.52;;;;;;;16.19;73.17;99098.25;4948907;28;96847;-78
2023/10/27 01:26:49;;;;;;;45.58;19.80;;;;;;;16.25;72.73;99101.25;4947965;28;96948;-79
2023/10/27 01:29:16;;;;;;;37.85;18.73;;;;;;;16.00;73.88;99100.78;4944958;28;98892;-79
2023/10/27 01:31:42;;;;;;;43.75;19.92;;;;;;;16.01;73.97;99099.81;4950841;28;98844;-79
2023/10/27 01:34:09;;;;;;;44.85;20.35;;;;;;;15.93;74.46;99095.97;4948704;28;96886;-80
2023/10/27 01:36:36;;;;;;;42.97;19.65;;;;;;;16.23;74.06;99092.53;4949190;28;96814;-78
2023/10/27 01:39:03;;;;;;;42.33;19.73;;;;;;;16.10;73.81;99086.56;4946811;28;98031;-79
2023/10/27 01:41:31;;;;;;;50.30;20.63;;;;;;;16.17;73.39;99087.72;4947502;28;98565;-79
2023/10/27 01:43:57;;;;;;;48.58;21.00;;;;;;;15.92;74.35;99083.63;4947436;28;96781;-79
2023/10/27 01:46:23;;;;;;;46.58;20.55;;;;;;;16.12;73.28;99073.09;4944765;28;96959;-79
2023/10/27 01:48:50;;;;;;;47.50;21.65;;;;;;;16.07;73.43;99076.16;4944826;28;98941;-78
2023/10/27 01:51:16;;;;;;;45.38;20.25;;;;;;;16.12;73.15;99073.97;4945916;28;98803;-79
2023/10/27 01:53:43;;;;;;;49.58;21.20;;;;;;;16.12;73.44;99065.13;4949142;28;96748;-80
2023/10/27 01:56:09;;;;;;;50.45;22.15;;;;;;;15.97;74.42;99072.56;4948220;28;96949;-81
2023/10/27 01:58:40;;;;;;;50.28;22.25;;;;;;;16.04;73.73;99071.09;4950385;28;97616;-80
2023/10/27 02:01:07;;;;;;;52.17;21.98;;;;;;;16.12;72.99;99067.78;4929087;28;98621;-81
2023/10/27 02:03:33;;;;;;;50.53;21.30;;;;;;;16.31;72.20;99066.09;4949134;28;96744;-80
2023/10/27 02:06:00;;;;;;;52.63;22.13;;;;;;;16.33;72.55;99072.13;4949251;28;96777;-79
2023/10/27 02:08:26;;;;;;;55.22;23.27;;;;;;;15.96;73.21;99073.53;4942961;28;97571;-79
2023/10/27 02:10:52;;;;;;;52.67;21.02;;;;;;;16.11;73.33;99074.94;4947132;28;99787;-78
2023/10/27 02:13:19;;;;;;;57.53;23.30;;;;;;;15.95;73.73;99074.50;4948163;28;97516;-80
2023/10/27 02:15:47;;;;;;;53.90;22.50;;;;;;;15.98;74.12;99066.28;4948182;28;96802;-80
2023/10/27 02:18:13;;;;;;;51.47;22.65;;;;;;;15.98;74.39;99070.75;4948266;28;99089;-79
2023/10/27 02:20:39;;;;;;;55.20;22.25;;;;;;;15.88;73.90;99071.50;4953080;28;101751;-79
2023/10/27 02:23:06;;;;;;;62.38;23.90;;;;;;;16.05;72.79;99075.44;4951051;28;97215;-78
2023/10/27 02:25:32;;;;;;;52.65;23.48;;;;;;;15.67;74.13;99069.81;4942803;28;100580;-77
2023/10/27 02:27:59;;;;;;;57.28;22.48;;;;;;;15.94;73.84;99065.69;4945407;28;99074;-76
2023/10/27 02:30:25;;;;;;;53.03;23.13;;;;;;;15.92;73.47;99061.47;4947333;28;101598;-77
2023/10/27 02:32:53;;;;;;;54.35;22.80;;;;;;;16.04;73.27;99070.22;4947137;28;96875;-77
2023/10/27 02:35:20;;;;;;;55.92;22.65;;;;;;;16.05;73.87;99075.44;4948988;28;99291;-77
2023/10/27 02:37:46;;;;;;;53.67;23.80;;;;;;;15.88;73.29;99078.69;4947782;28;99118;-77
2023/10/27 02:40:13;;;;;;;54.67;22.92;;;;;;;15.99;73.63;99078.63;4949688;28;101713;-76
2023/10/27 02:42:39;;;;;;;58.58;23.73;;;;;;;15.84;73.70;99078.09;4946298;28;96852;-77
2023/10/27 02:45:07;;;;;;;51.83;22.95;;;;;;;15.96;73.74;99076.19;4950081;28;96736;-76
2023/10/27 02:47:33;;;;;;;60.75;24.23;;;;;;;15.61;74.88;99084.47;4951109;28;101885;-76
2023/10/27 02:50:02;;;;;;;53.08;23.77;;;;;;;15.84;73.93;99080.75;4950055;28;98859;-77
2023/10/27 02:52:28;;;;;;;50.70;23.42;;;;;;;15.58;75.25;99095.38;4949408;28;97123;-77
2023/10/27 02:54:55;;;;;;;53.45;21.95;;;;;;;15.72;74.08;99094.22;4946421;28;96849;-76
2023/10/27 02:57:21;;;;;;;48.45;21.45;;;;;;;15.46;74.71;99094.53;4955834;28;98922;-76
2023/10/27 02:59:48;;;;;;;48.28;22.88;;;;;;;15.68;74.70;99095.47;4945500;28;99077;-76
2023/10/27 03:02:15;;;;;;;49.30;21.98;;;;;;;15.54;75.27;99093.94;4949527;28;97920;-77
2023/10/27 03:04:41;;;;;;;50.50;21.95;;;;;;;15.94;74.04;99088.81;4950971;28;97055;-76
2023/10/27 03:07:09;;;;;;;47.65;22.75;;;;;;;15.76;74.35;99095.66;4951020;28;101734;-76
2023/10/27 03:09:35;;;;;;;52.10;23.20;;;;;;;15.93;73.78;99100.44;4951382;28;98845;-76
2023/10/27 03:12:02;;;;;;;46.65;21.45;;;;;;;15.84;73.43;99091.41;4949776;28;97103;-77
2023/10/27 03:14:28;;;;;;;45.63;21.13;;;;;;;15.69;73.77;99087.34;4947357;28;97904;-76
2023/10/27 03:16:54;;;;;;;44.15;20.83;;;;;;;15.53;74.10;99095.75;4951027;28;98919;-75
2023/10/27 03:19:21;;;;;;;40.28;20.45;;;;;;;15.65;73.50;99091.22;4947689;28;100731;-75
2023/10/27 03:21:48;;;;;;;36.45;19.45;;;;;;;15.88;72.78;99092.00;4947492;28;99452;-75
2023/10/27 03:24:15;;;;;;;45.78;19.40;;;;;;;15.96;72.08;99092.19;4951868;28;96944;-76
2023/10/27 03:26:42;;;;;;;38.03;19.10;;;;;;;15.90;72.27;99090.03;4951467;28;99074;-76
2023/10/27 03:29:08;;;;;;;31.65;18.25;;;;;;;15.75;72.96;99091.34;4949612;28;98823;-76
2023/10/27 03:31:35;;;;;;;35.05;18.48;;;;;;;16.07;71.76;99084.16;4950318;28;96834;-76
2023/10/27 03:34:01;;;;;;;37.20;18.48;;;;;;;15.76;72.55;99085.00;4955035;28;98628;-76
2023/10/27 03:36:28;;;;;;;37.13;17.77;;;;;;;15.99;71.79;99089.28;4950503;28;99122;-76
2023/10/27 03:38:54;;;;;;;36.08;18.90;;;;;;;15.80;72.78;99086.47;4950848;28;98794;-78
2023/10/27 03:41:22;;;;;;;35.75;19.55;;;;;;;15.61;73.65;99084.47;4951175;28;96731;-77
2023/10/27 03:43:48;;;;;;;35.92;19.42;;;;;;;15.65;73.60;99091.22;4950118;28;96763;-77
2023/10/27 03:46:15;;;;;;;32.78;18.75;;;;;;;15.91;72.75;99084.59;4950343;28;100977;-77
2023/10/27 03:48:44;;;;;;;34.40;19.23;;;;;;;15.88;72.87;99086.69;4950655;28;99400;-83
2023/10/27 03:51:11;;;;;;;32.65;18.58;;;;;;;15.93;72.67;99084.47;4950336;28;96974;-82
2023/10/27 03:53:37;;;;;;;35.33;19.50;;;;;;;16.04;72.17;99081.75;4955110;28;96763;-81
2023/10/27 03:56:04;;;;;;;34.28;19.60;;;;;;;16.11;71.84;99077.59;4951593;28;98231;-81
2023/10/27 03:58:32;;;;;;;39.42;20.88;;;;;;;16.03;71.68;99073.88;4957056;28;101645;-81
2023/10/27 04:00:59;;;;;;;39.78;20.05;;;;;;;16.28;71.38;99079.66;4947201;28;97561;-89
2023/10/27 04:03:25;;;;;;;34.75;19.25;;;;;;;16.21;71.02;99073.16;4958797;28;96703;-89
2023/10/27 04:05:52;;;;;;;35.63;19.63;;;;;;;16.33;70.38;99076.63;4955733;28;100978;-89
2023/10/27 04:08:18;;;;;;;36.88;19.10;;;;;;;16.14;70.73;99076.50;4959540;28;100387;-89
2023/10/27 04:10:45;;;;;;;33.80;18.67;;;;;;;16.14;71.30;99071.16;4968649;28;96562;-85
2023/10/27 04:13:12;;;;;;;38.33;20.15;;;;;;;16.07;71.42;99070.00;4950355;28;97749;-77
2023/10/27 04:15:40;;;;;;;40.15;19.23;;;;;;;16.25;70.86;99061.28;4949345;28;100895;-75
2023/10/27 04:18:06;;;;;;;37.42;19.45;;;;;;;16.11;71.51;99066.94;4948576;28;98219;-75
2023/10/27 04:20:32;;;;;;;38.42;19.33;;;;;;;16.31;70.81;99063.41;4948303;28;97215;-75
2023/10/27 04:22:59;;;;;;;38.17;19.48;;;;;;;16.25;70.90;99071.94;4946853;28;96771;-75
2023/10/27 04:25:25;;;;;;;42.95;21.55;;;;;;;16.02;71.50;99069.50;4950057;28;98779;-76
2023/10/27 04:27:52;;;;;;;38.63;20.45;;;;;;;16.21;71.12;99075.00;4950177;28;102211;-76
2023/10/27 04:30:18;;;;;;;35.65;19.58;;;;;;;16.24;70.81;99066.72;4949317;28;97827;-75
2023/10/27 04:32:46;;;;;;;35.38;18.58;;;;;;;16.26;70.54;99070.13;4946562;28;96860;-75
2023/10/27 04:35:13;;;;;;;33.45;18.08;;;;;;;16.34;70.81;99067.66;4949429;28;98855;-75
2023/10/27 04:37:40;;;;;;;35.97;18.73;;;;;;;16.03;71.72;99064.06;4950423;28;99175;-81
2023/10/27 04:40:07;;;;;;;34.40;19.10;;;;;;;16.06;72.46;99062.97;4952801;28;97226;-80
2023/10/27 04:42:34;;;;;;;35.35;19.20;;;;;;;16.29;71.21;99054.69;4949308;28;96847;-79
2023/10/27 04:45:00;;;;;;;39.22;18.95;;;;;;;16.31;70.89;99054.56;4953620;28;98915;-78
2023/10/27 04:47:26;;;;;;;40.90;18.95;;;;;;;16.02;71.47;99054.38;4950159;28;97563;-80
2023/10/27 04:49:54;;;;;;;42.65;20.00;;;;;;;16.01;71.71;99060.69;4954907;28;96863;-78
2023/10/27 04:52:20;;;;;;;38.75;18.67;;;;;;;16.03;71.77;99058.72;4948907;28;97844;-77
2023/10/27 04:54:47;;;;;;;36.80;19.98;;;;;;;16.10;71.76;99054.56;4954634;28;98379;-77
2023/10/27 04:57:13;;;;;;;37.25;19.40;;;;;;;16.12;71.49;99047.31;4945268;28;98928;-77
2023/10/27 04:59:39;;;;;;;39.45;18.55;;;;;;;16.11;71.43;99052.75;4950541;28;97033;-77
2023/10/27 05:02:06;;;;;;;41.72;20.75;;;;;;;15.99;72.15;99046.66;4947935;28;96831;-79
2023/10/27 05:04:33;;;;;;;42.72;21.30;;;;;;;16.17;71.35;99045.09;4946927;28;101936;-78
2023/10/27 05:07:03;;;;;;;39.90;18.60;;;;;;;16.10;71.74;99041.25;4950520;28;97702;-78
2023/10/27 05:09:29;;;;;;;38.13;18.27;;;;;;;16.15;71.46;99052.34;4948060;28;96761;-79
2023/10/27 05:11:56;;;;;;;33.65;18.17;;;;;;;16.06;72.12;99047.84;4952375;28;97061;-77
2023/10/27 05:14:22;;;;;;;39.10;18.00;;;;;;;15.92;72.74;99045.47;4948396;28;101357;-77
2023/10/27 05:16:49;;;;;;;45.38;21.02;;;;;;;16.09;72.13;99044.03;4949422;28;99795;-77
2023/10/27 05:19:15;;;;;;;38.97;19.25;;;;;;;15.79;73.03;99040.34;4948993;28;96682;-78
2023/10/27 05:21:42;;;;;;;40.30;19.50;;;;;;;15.85;72.95;99045.16;4948387;28;97178;-78
2023/10/27 05:24:11;;;;;;;40.50;20.80;;;;;;;16.14;72.03;99045.38;4959103;28;99685;-78
2023/10/27 05:26:37;;;;;;;35.47;18.02;;;;;;;16.09;71.76;99047.56;4948073;28;97797;-78
2023/10/27 05:29:04;;;;;;;40.13;19.63;;;;;;;15.98;72.25;99046.78;4947807;28;97810;-78
2023/10/27 05:31:30;;;;;;;39.60;19.10;;;;;;;15.88;73.00;99042.22;4947637;28;97180;-79
2023/10/27 05:33:57;;;;;;;42.05;19.90;;;;;;;16.11;71.95;99037.63;4944531;28;101367;-79
2023/10/27 05:36:24;;;;;;;43.30;18.88;;;;;;;16.12;71.63;99038.47;4945858;28;98874;-78
2023/10/27 05:38:50;;;;;;;38.47;18.33;;;;;;;16.07;71.67;99032.69;4945165;28;96717;-77
2023/10/27 05:41:18;;;;;;;38.75;19.05;;;;;;;16.15;71.63;99039.03;4950879;28;96811;-80
2023/10/27 05:43:44;;;;;;;37.55;18.20;;;;;;;15.76;73.11;99040.59;4946016;28;101549;-77
2023/10/27 05:46:13;;;;;;;43.55;19.67;;;;;;;15.83;73.19;99049.75;4945430;28;99620;-82
2023/10/27 05:48:40;;;;;;;41.88;19.48;;;;;;;16.01;72.73;99047.38;4949736;28;97640;-85
2023/10/27 05:51:07;;;;;;;43.90;20.65;;;;;;;15.96;72.85;99041.56;4952031;28;96844;-84
2023/10/27 05:53:33;;;;;;;42.20;18.83;;;;;;;16.02;72.48;99046.38;4950533;28;101435;-84
2023/10/27 05:56:00;;;;;;;40.50;19.83;;;;;;;16.00;72.83;99056.34;4941718;28;99859;-83
2023/10/27 05:58:32;;;;;;;41.25;19.77;;;;;;;15.89;73.07;99051.06;4946710;28;97270;-83
2023/10/27 06:01:00;;;;;;;44.38;18.75;;;;;;;15.85;73.45;99053.13;4944525;28;98435;-79
2023/10/27 06:03:26;;;;;;;42.22;19.60;;;;;;;16.00;73.10;99052.84;4949348;28;100237;-79
2023/10/27 06:05:53;;;;;;;39.83;18.60;;;;;;;15.68;74.45;99044.88;4949695;28;97725;-77
2023/10/27 06:08:20;;;;;;;42.67;18.95;;;;;;;16.01;73.31;99046.53;4948526;28;96787;-79
2023/10/27 06:10:46;;;;;;;38.40;19.30;;;;;;;15.87;73.72;99048.53;4955296;28;96754;-78
2023/10/27 06:13:13;;;;;;;39.25;18.45;;;;;;;16.13;72.96;99054.34;4955706;28;98882;-79
2023/10/27 06:15:41;;;;;;;41.83;18.00;;;;;;;16.11;73.04;99045.63;4949480;28;98970;-79
2023/10/27 06:18:08;;;;;;;39.72;16.23;;;;;;;16.25;72.57;99053.28;4950038;28;96736;-79
2023/10/27 06:20:34;;;;;;;33.67;16.25;;;;;;;15.98;73.27;99039.63;4949454;28;97093;-80
2023/10/27 06:23:01;;;;;;;36.00;16.55;;;;;;;15.91;73.95;99049.97;4949180;28;99280;-80
2023/10/27 06:25:27;;;;;;;34.30;16.45;;;;;;;16.01;73.42;99054.53;4949965;28;101182;-79
2023/10/27 06:27:54;;;;;;;36.25;16.88;;;;;;;15.88;74.02;99058.19;4949827;28;96696;-79
2023/10/27 06:30:22;;;;;;;37.15;15.85;;;;;;;16.08;72.72;99055.69;4947931;28;97476;-79
2023/10/27 06:32:50;;;;;;;37.38;15.77;;;;;;;16.12;72.62;99065.97;4956920;28;99334;-79
2023/10/27 06:35:17;;;;;;;40.83;15.70;;;;;;;16.01;72.87;99060.69;4949000;28;98790;-81
2023/10/27 06:37:43;;;;;;;33.15;15.27;;;;;;;15.75;73.75;99065.53;4951175;28;96886;-78
2023/10/27 06:40:11;;;;;;;39.67;16.10;;;;;;;15.95;73.71;99074.50;4952594;28;97917;-79
2023/10/27 06:42:37;;;;;;;38.70;16.95;;;;;;;16.03;73.17;99072.06;4953191;28;101352;-78
2023/10/27 06:45:04;;;;;;;33.92;15.30;;;;;;;16.14;72.72;99072.00;4952754;28;97377;-78
2023/10/27 06:47:30;;;;;;;37.92;16.90;;;;;;;15.94;72.62;99079.03;4952594;28;96772;-78
2023/10/27 06:49:58;;;;;;;43.75;17.65;;;;;;;16.20;72.36;99074.16;4952965;28;96953;-78
2023/10/27 06:52:24;;;;;;;36.38;17.05;;;;;;;16.19;72.29;99079.59;4952567;28;98163;-79
2023/10/27 06:54:51;;;;;;;35.72;16.75;;;;;;;16.17;72.92;99093.06;4951370;28;97575;-78
2023/10/27 06:57:17;;;;;;;40.65;15.93;;;;;;;16.24;72.49;99086.25;4956945;28;96826;-78
2023/10/27 06:59:44;;;;;;;40.28;18.08;;;;;;;16.17;72.63;99094.88;4952735;28;96886;-79
2023/10/27 07:02:10;;;;;;;40.13;16.13;;;;;;;16.06;73.24;99097.59;4951158;28;97727;-79
2023/10/27 07:04:37;;;;;;;36.20;16.23;;;;;;;16.14;72.75;99100.47;4950997;28;100841;-78
2023/10/27 07:07:05;;;;;;;37.75;17.08;;;;;;;15.97;73.51;99101.03;4958303;28;96558;-79
2023/10/27 07:09:31;;;;;;;39.33;15.98;;;;;;;16.20;72.87;99103.47;4953503;28;97157;-78
2023/10/27 07:12:00;;;;;;;36.85;17.10;;;;;;;15.93;73.30;99103.97;4957537;28;98215;-78
2023/10/27 07:14:26;;;;;;;38.40;16.50;;;;;;;16.08;73.12;99103.66;4958666;28;98927;-78
2023/10/27 07:16:54;;;;;;;38.40;18.35;;;;;;;16.09;73.24;99097.34;4949006;28;96820;-78
2023/10/27 07:19:21;;;;;;;41.40;18.95;;;;;;;16.16;73.22;99091.34;4958393;28;97398;-77
2023/10/27 07:21:47;;;;;;;43.33;18.23;;;;;;;16.32;71.83;99101.59;4947453;28;99369;-77
2023/10/27 07:24:15;;;;;;;42.25;18.33;;;;;;;16.33;71.76;99109.44;4954291;28;101436;-79
2023/10/27 07:26:42;;;;;;;44.80;19.73;;;;;;;16.43;71.26;99106.00;4950004;28;96859;-79
2023/10/27 07:29:09;;;;;;;39.50;19.95;;;;;;;16.24;71.50;99104.88;4951451;28;97498;-78
2023/10/27 07:31:35;;;;;;;49.72;21.55;;;;;;;16.47;70.45;99105.63;4960917;28;98873;-79
2023/10/27 07:34:02;;;;;;;42.28;20.48;;;;;;;16.35;70.51;99106.63;4956611;28;99230;-80
2023/10/27 07:36:28;;;;;;;43.15;21.35;;;;;;;16.29;70.29;99102.66;4950109;28;97205;-78
2023/10/27 07:38:55;;;;;;;42.47;20.10;;;;;;;16.28;69.93;99097.47;4949728;28;96758;-79
2023/10/27 07:41:23;;;;;;;43.70;21.00;;;;;;;16.34;70.66;99108.44;4952485;28;102745;-79
2023/10/27 07:43:49;;;;;;;40.78;20.63;;;;;;;16.45;69.76;99102.22;4955098;28;98767;-79
2023/10/27 07:46:16;;;;;;;45.55;21.00;;;;;;;16.40;69.80;99093.78;4950835;28;97115;-79
2023/10/27 07:48:43;;;;;;;41.20;19.90;;;;;;;16.39;69.15;99091.25;4947836;28;97413;-79
2023/10/27 07:51:10;;;;;;;39.08;20.05;;;;;;;16.32;69.09;99093.59;4949381;28;100557;-79
2023/10/27 07:53:36;;;;;;;37.67;19.33;;;;;;;16.36;69.37;99100.34;4948664;28;99157;-80
2023/10/27 07:56:04;;;;;;;44.35;21.83;;;;;;;16.32;68.80;99099.75;4949983;28;96805;-79
2023/10/27 07:58:32;;;;;;;44.13;20.25;;;;;;;16.31;69.04;99102.56;4949526;28;96886;-79
2023/10/27 08:00:59;;;;;;;39.03;20.40;;;;;;;16.37;69.56;99093.19;4932983;28;98784;-82
2023/10/27 08:03:26;;;;;;;39.83;20.67;;;;;;;16.27;69.52;99093.97;4949107;28;99427;-80
2023/10/27 08:05:53;;;;;;;46.97;21.40;;;;;;;16.31;69.04;99098.06;4953478;28;96959;-82
2023/10/27 08:08:20;;;;;;;34.75;18.65;;;;;;;16.55;68.60;99096.94;4951346;28;96980;-82
2023/10/27 08:10:47;;;;;;;37.63;19.73;;;;;;;16.66;67.95;99099.56;4954525;28;101576;-82
2023/10/27 08:13:16;;;;;;;38.33;19.17;;;;;;;16.54;68.35;99090.75;4952941;28;99173;-83
2023/10/27 08:15:44;;;;;;;32.60;19.30;;;;;;;16.52;68.68;99089.22;4952811;28;96759;-83
2023/10/27 08:18:13;;;;;;;35.10;19.13;;;;;;;16.66;68.03;99084.41;4952529;28;96812;-83
2023/10/27 08:20:39;;;;;;;34.90;18.73;;;;;;;16.79;67.50;99084.19;4952632;28;100018;-85
2023/10/27 08:23:06;;;;;;;40.38;19.10;;;;;;;16.75;67.23;99077.41;4951247;28;101044;-85
2023/10/27 08:25:33;;;;;;;38.47;20.73;;;;;;;16.62;67.94;99076.78;4951509;28;96977;-83
2023/10/27 08:28:00;;;;;;;41.22;19.23;;;;;;;16.51;68.18;99077.69;4947506;28;96768;-83
2023/10/27 08:30:26;;;;;;;34.40;18.92;;;;;;;16.44;68.13;99076.53;4948645;28;97883;-83
2023/10/27 08:32:54;;;;;;;35.53;18.95;;;;;;;16.32;67.68;99069.59;4949810;28;98020;-83
2023/10/27 08:35:21;;;;;;;36.17;19.92;;;;;;;16.47;67.86;99072.78;4954124;28;96770;-82
2023/10/27 08:37:48;;;;;;;38.83;20.10;;;;;;;16.67;66.72;99078.09;4948792;28;96987;-83
2023/10/27 08:40:20;;;;;;;36.10;18.90;;;;;;;16.58;67.27;99080.69;4957108;28;102017;-81
2023/10/27 08:42:49;;;;;;;37.42;18.42;;;;;;;16.65;66.67;99084.53;4953027;28;98889;-81
2023/10/27 08:45:15;;;;;;;32.58;17.25;;;;;;;16.50;67.01;99078.69;4951205;28;96930;-81
2023/10/27 08:47:42;;;;;;;37.20;18.95;;;;;;;16.59;66.96;99087.72;4949613;28;96829;-81
2023/10/27 08:50:10;;;;;;;28.42;17.20;;;;;;;16.47;66.95;99083.44;4950215;28;99274;-82
2023/10/27 08:52:39;;;;;;;30.92;17.38;;;;;;;16.44;67.32;99095.19;4953034;28;98627;-81
2023/10/27 08:55:09;;;;;;;32.60;16.67;;;;;;;16.29;68.39;99093.84;4946711;28;97065;-80
2023/10/27 08:57:35;;;;;;;34.60;18.85;;;;;;;16.50;67.65;99088.50;4944353;28;96837;-80
2023/10/27 09:00:02;;;;;;;27.80;15.75;;;;;;;16.40;67.71;99083.13;4946579;28;98233;-81
2023/10/27 09:02:30;;;;;;;26.85;16.13;;;;;;;16.28;67.50;99084.13;4949944;28;98172;-83
2023/10/27 09:05:01;;;;;;;30.95;16.98;;;;;;;16.37;66.92;99080.69;4944562;28;96868;-81
2023/10/27 09:07:29;;;;;;;29.83;16.73;;;;;;;16.39;67.64;99091.25;4953047;28;97221;-81
2023/10/27 09:09:55;;;;;;;32.05;16.80;;;;;;;16.50;67.33;99093.81;4950501;28;99041;-82
2023/10/27 09:12:23;;;;;;;28.08;16.05;;;;;;;16.20;68.65;99081.31;4952270;28;99158;-83
2023/10/27 09:14:59;;;;;;;32.55;15.85;;;;;;;16.24;68.35;99083.56;4950260;28;96882;-79
2023/10/27 09:17:26;;;;;;;30.92;16.20;;;;;;;16.40;67.96;99079.59;4952195;28;97890;-81
2023/10/27 09:20:03;;;;;;;27.70;15.43;;;;;;;16.46;67.79;99082.59;4951423;28;98959;-80
2023/10/27 09:22:31;;;;;;;31.02;16.55;;;;;;;16.58;66.79;99084.19;4949185;28;98050;-79
2023/10/27 09:25:13;;;;;;;28.17;15.52;;;;;;;16.75;66.62;99080.09;4958328;28;96966;-80
2023/10/27 09:27:43;;;;;;;29.98;16.75;;;;;;;16.71;66.82;99078.69;4955487;28;96639;-78
2023/10/27 09:30:12;;;;;;;25.45;14.63;;;;;;;16.66;66.68;99079.09;4944982;28;99164;-80
2023/10/27 09:32:40;;;;;;;26.00;14.30;;;;;;;16.76;66.30;99089.78;4954622;28;102102;-80
2023/10/27 09:35:10;;;;;;;23.88;14.30;;;;;;;16.90;65.30;99093.91;4956035;28;96818;-78
2023/10/27 09:37:38;;;;;;;26.13;15.23;;;;;;;16.60;66.53;99084.94;4960056;28;96765;-79
2023/10/27 09:40:08;;;;;;;25.73;14.60;;;;;;;16.72;66.78;99083.88;4956233;28;99703;-80
2023/10/27 09:42:37;;;;;;;27.75;14.40;;;;;;;16.70;66.41;99085.00;4957225;28;99384;-80
2023/10/27 09:45:08;;;;;;;28.13;15.57;;;;;;;16.82;65.80;99083.91;4955038;28;98035;-80
2023/10/27 09:47:36;;;;;;;27.00;15.05;;;;;;;16.80;65.27;99093.91;4940679;28;96903;-79
2023/10/27 09:50:06;;;;;;;29.48;14.77;;;;;;;16.83;65.37;99087.44;4949161;28;100036;-79
2023/10/27 09:52:34;;;;;;;23.15;14.48;;;;;;;16.74;65.61;99095.25;4949244;28;98933;-81
2023/10/27 09:55:03;;;;;;;28.60;16.23;;;;;;;16.58;65.48;99091.34;4949268;28;96900;-80
2023/10/27 09:57:30;;;;;;;23.85;13.85;;;;;;;16.92;64.72;99091.97;4947382;28;97562;-79
2023/10/27 09:59:57;;;;;;;24.88;14.98;;;;;;;16.86;65.01;99089.84;4948077;28;100403;-80
2023/10/27 10:02:24;;;;;;;26.52;16.25;;;;;;;16.66;65.33;99087.09;4948105;28;98133;-78
2023/10/27 10:05:00;;;;;;;25.85;15.30;;;;;;;16.67;65.35;99091.41;4943390;28;97391;-78
2023/10/27 10:07:33;;;;;;;27.93;15.97;;;;;;;16.89;64.69;99082.41;4944427;28;96865;-77
2023/10/27 10:10:18;;;;;;;27.40;16.13;;;;;;;16.93;64.43;99088.34;4946101;28;99057;-78
2023/10/27 10:13:02;;;;;;;25.23;15.18;;;;;;;17.00;64.03;99081.47;4945636;28;99016;-79
2023/10/27 10:15:31;;;;;;;28.58;16.65;;;;;;;16.85;64.83;99086.31;4952445;28;97077;-80
2023/10/27 10:17:57;;;;;;;26.95;15.80;;;;;;;17.09;63.74;99078.81;4951202;28;96891;-80
2023/10/27 10:20:56;;;;;;;28.50;16.80;;;;;;;16.85;64.08;99065.00;4948173;28;98906;-79
2023/10/27 10:23:24;;;;;;;28.02;15.18;;;;;;;16.92;63.98;99065.28;4938843;28;99094;-79
2023/10/27 10:25:53;;;;;;;26.35;15.10;;;;;;;16.78;64.27;99061.16;4947174;28;97080;-79
2023/10/27 10:28:24;;;;;;;26.38;15.45;;;;;;;17.02;63.46;99059.00;4948105;28;96842;-80
2023/10/27 10:31:25;;;;;;;26.88;14.48;;;;;;;16.96;63.83;99059.53;4946721;28;98198;-79
2023/10/27 10:34:09;;;;;;;30.77;15.25;;;;;;;17.09;63.51;99057.47;4948507;28;96835;-80
2023/10/27 10:36:35;;;;;;;26.27;15.05;;;;;;;16.86;63.92;99061.34;4949671;28;97269;-79
2023/10/27 10:39:04;;;;;;;25.90;14.63;;;;;;;16.89;63.26;99065.53;4954485;28;96747;-80
2023/10/27 10:42:00;;;;;;;22.65;14.48;;;;;;;16.88;63.43;99066.53;4951782;28;99403;-81
2023/10/27 10:44:30;;;;;;;22.27;13.98;;;;;;;16.82;63.69;99070.56;4955911;28;100322;-79
2023/10/27 10:47:00;;;;;;;29.00;14.55;;;;;;;16.77;64.20;99062.13;4949402;28;96881;-78
2023/10/27 10:49:27;;;;;;;24.92;12.60;;;;;;;17.00;63.51;99066.28;4947504;28;97178;-78
2023/10/27 10:51:54;;;;;;;29.40;12.57;;;;;;;17.06;63.08;99056.91;4945674;28;98872;-78
2023/10/27 10:54:26;;;;;;;21.52;12.02;;;;;;;16.82;63.39;99059.06;4949502;28;98932;-78
2023/10/27 10:57:01;;;;;;;18.95;11.73;;;;;;;16.90;63.43;99062.75;4939871;28;97240;-78
2023/10/27 10:59:27;;;;;;;27.83;12.98;;;;;;;16.56;64.54;99061.28;4947695;28;96899;-77
2023/10/27 11:01:57;;;;;;;17.65;11.80;;;;;;;16.82;63.77;99057.25;4945341;28;98547;-79
2023/10/27 11:04:31;;;;;;;17.08;10.85;;;;;;;17.13;62.05;99053.53;4948787;28;100756;-80
2023/10/27 11:07:02;;;;;;;18.48;11.65;;;;;;;17.01;62.40;99053.78;4948132;28;96814;-80
2023/10/27 11:09:31;;;;;;;17.02;10.80;;;;;;;17.00;62.87;99052.94;4948729;28;96785;-79
2023/10/27 11:11:58;;;;;;;18.63;11.75;;;;;;;17.11;62.33;99058.19;4938003;28;101209;-80
2023/10/27 11:14:25;;;;;;;20.95;10.95;;;;;;;16.83;62.30;99056.25;4947338;28;98897;-78
2023/10/27 11:17:04;;;;;;;17.70;10.20;;;;;;;16.95;62.38;99052.50;4946550;28;96771;-78
2023/10/27 11:19:30;;;;;;;15.82;9.93;;;;;;;16.89;61.92;99057.53;4942067;28;97210;-79